sensor_id;sensor_type;location;lat;lon;timestamp;P1;durP1;ratioP1;P2;durP2;ratioP2
18445;SDS011;9352;50.888;4.466;2023-04-26T00:00:18;17.30;;;5.90;;
18445;SDS011;9352;50.888;4.466;2023-04-26T00:02:45;18.63;;;5.30;;
18445;SDS011;9352;50.888;4.466;2023-04-26T00:05:12;17.27;;;5.60;;
18445;SDS011;9352;50.888;4.466;2023-04-26T00:07:40;21.20;;;5.78;;
18445;SDS011;9352;50.888;4.466;2023-04-26T00:10:09;17.27;;;5.32;;
18445;SDS011;9352;50.888;4.466;2023-04-26T00:12:36;14.93;;;5.53;;
18445;SDS011;9352;50.888;4.466;2023-04-26T00:15:06;14.68;;;4.65;;
18445;SDS011;9352;50.888;4.466;2023-04-26T00:17:33;16.67;;;5.50;;
18445;SDS011;9352;50.888;4.466;2023-04-26T00:20:00;16.90;;;5.82;;
18445;SDS011;9352;50.888;4.466;2023-04-26T00:22:29;13.95;;;5.28;;
18445;SDS011;9352;50.888;4.466;2023-04-26T00:24:56;11.85;;;5.18;;
18445;SDS011;9352;50.888;4.466;2023-04-26T00:27:24;10.97;;;5.07;;
18445;SDS011;9352;50.888;4.466;2023-04-26T00:29:51;9.82;;;5.20;;
18445;SDS011;9352;50.888;4.466;2023-04-26T00:32:18;11.63;;;4.88;;
18445;SDS011;9352;50.888;4.466;2023-04-26T00:34:45;13.15;;;5.78;;
18445;SDS011;9352;50.888;4.466;2023-04-26T00:37:12;11.83;;;5.50;;
18445;SDS011;9352;50.888;4.466;2023-04-26T00:39:38;13.52;;;5.40;;
18445;SDS011;9352;50.888;4.466;2023-04-26T00:42:05;17.00;;;5.30;;
18445;SDS011;9352;50.888;4.466;2023-04-26T00:44:34;12.87;;;5.50;;
18445;SDS011;9352;50.888;4.466;2023-04-26T00:47:04;20.37;;;5.10;;
18445;SDS011;9352;50.888;4.466;2023-04-26T00:49:31;12.52;;;4.80;;
18445;SDS011;9352;50.888;4.466;2023-04-26T00:51:58;11.50;;;5.27;;
18445;SDS011;9352;50.888;4.466;2023-04-26T00:54:25;18.47;;;5.30;;
18445;SDS011;9352;50.888;4.466;2023-04-26T00:56:52;13.53;;;5.30;;
18445;SDS011;9352;50.888;4.466;2023-04-26T00:59:20;10.20;;;5.63;;
18445;SDS011;9352;50.888;4.466;2023-04-26T01:01:48;13.97;;;5.20;;
18445;SDS011;9352;50.888;4.466;2023-04-26T01:04:15;14.37;;;5.43;;
18445;SDS011;9352;50.888;4.466;2023-04-26T01:06:43;19.33;;;5.67;;
18445;SDS011;9352;50.888;4.466;2023-04-26T01:09:10;16.00;;;5.80;;
18445;SDS011;9352;50.888;4.466;2023-04-26T01:11:39;18.73;;;6.20;;
18445;SDS011;9352;50.888;4.466;2023-04-26T01:14:07;12.20;;;5.53;;
18445;SDS011;9352;50.888;4.466;2023-04-26T01:16:35;14.30;;;5.53;;
18445;SDS011;9352;50.888;4.466;2023-04-26T01:19:07;15.27;;;5.40;;
18445;SDS011;9352;50.888;4.466;2023-04-26T01:21:36;12.17;;;5.60;;
18445;SDS011;9352;50.888;4.466;2023-04-26T01:24:05;15.43;;;5.80;;
18445;SDS011;9352;50.888;4.466;2023-04-26T01:26:34;14.67;;;5.17;;
18445;SDS011;9352;50.888;4.466;2023-04-26T01:29:11;16.53;;;5.67;;
18445;SDS011;9352;50.888;4.466;2023-04-26T01:31:39;11.37;;;5.47;;
18445;SDS011;9352;50.888;4.466;2023-04-26T01:34:06;15.67;;;4.97;;
18445;SDS011;9352;50.888;4.466;2023-04-26T01:36:32;14.27;;;5.20;;
18445;SDS011;9352;50.888;4.466;2023-04-26T01:38:59;15.43;;;5.97;;
18445;SDS011;9352;50.888;4.466;2023-04-26T01:41:27;13.77;;;5.07;;
18445;SDS011;9352;50.888;4.466;2023-04-26T01:43:54;18.03;;;6.03;;
18445;SDS011;9352;50.888;4.466;2023-04-26T01:46:21;16.80;;;5.63;;
18445;SDS011;9352;50.888;4.466;2023-04-26T01:48:48;14.63;;;5.57;;
18445;SDS011;9352;50.888;4.466;2023-04-26T01:51:15;18.07;;;5.53;;
18445;SDS011;9352;50.888;4.466;2023-04-26T01:53:42;20.67;;;5.70;;
18445;SDS011;9352;50.888;4.466;2023-04-26T01:56:09;14.73;;;6.20;;
18445;SDS011;9352;50.888;4.466;2023-04-26T01:58:37;18.57;;;6.10;;
18445;SDS011;9352;50.888;4.466;2023-04-26T02:01:05;16.90;;;6.07;;
18445;SDS011;9352;50.888;4.466;2023-04-26T02:03:32;18.67;;;6.10;;
18445;SDS011;9352;50.888;4.466;2023-04-26T02:05:59;21.80;;;5.70;;
18445;SDS011;9352;50.888;4.466;2023-04-26T02:08:27;14.60;;;5.70;;
18445;SDS011;9352;50.888;4.466;2023-04-26T02:10:54;16.20;;;6.15;;
18445;SDS011;9352;50.888;4.466;2023-04-26T02:13:20;10.63;;;5.90;;
18445;SDS011;9352;50.888;4.466;2023-04-26T02:15:49;19.40;;;5.63;;
18445;SDS011;9352;50.888;4.466;2023-04-26T02:18:16;14.13;;;6.00;;
18445;SDS011;9352;50.888;4.466;2023-04-26T02:20:46;19.73;;;5.87;;
18445;SDS011;9352;50.888;4.466;2023-04-26T02:23:13;12.87;;;5.90;;
18445;SDS011;9352;50.888;4.466;2023-04-26T02:25:40;18.57;;;5.60;;
18445;SDS011;9352;50.888;4.466;2023-04-26T02:28:10;10.33;;;4.83;;
18445;SDS011;9352;50.888;4.466;2023-04-26T02:30:37;19.73;;;5.67;;
18445;SDS011;9352;50.888;4.466;2023-04-26T02:33:05;13.80;;;5.70;;
18445;SDS011;9352;50.888;4.466;2023-04-26T02:35:32;17.23;;;6.00;;
18445;SDS011;9352;50.888;4.466;2023-04-26T02:38:00;14.70;;;6.07;;
18445;SDS011;9352;50.888;4.466;2023-04-26T02:40:27;20.07;;;5.90;;
18445;SDS011;9352;50.888;4.466;2023-04-26T02:42:54;13.57;;;5.30;;
18445;SDS011;9352;50.888;4.466;2023-04-26T02:45:21;12.63;;;5.47;;
18445;SDS011;9352;50.888;4.466;2023-04-26T02:47:48;15.83;;;5.67;;
18445;SDS011;9352;50.888;4.466;2023-04-26T02:50:16;14.23;;;5.43;;
18445;SDS011;9352;50.888;4.466;2023-04-26T02:52:43;15.40;;;6.13;;
18445;SDS011;9352;50.888;4.466;2023-04-26T02:55:10;13.20;;;5.77;;
18445;SDS011;9352;50.888;4.466;2023-04-26T02:57:37;15.00;;;5.60;;
18445;SDS011;9352;50.888;4.466;2023-04-26T03:00:04;19.63;;;6.00;;
18445;SDS011;9352;50.888;4.466;2023-04-26T03:02:32;10.57;;;5.50;;
18445;SDS011;9352;50.888;4.466;2023-04-26T03:05:00;14.00;;;5.43;;
18445;SDS011;9352;50.888;4.466;2023-04-26T03:07:29;12.97;;;5.70;;
18445;SDS011;9352;50.888;4.466;2023-04-26T03:09:57;11.07;;;5.73;;
18445;SDS011;9352;50.888;4.466;2023-04-26T03:12:25;14.47;;;5.43;;
18445;SDS011;9352;50.888;4.466;2023-04-26T03:14:52;18.17;;;5.50;;
18445;SDS011;9352;50.888;4.466;2023-04-26T03:17:19;18.03;;;5.83;;
18445;SDS011;9352;50.888;4.466;2023-04-26T03:19:45;22.73;;;5.83;;
18445;SDS011;9352;50.888;4.466;2023-04-26T03:22:12;19.43;;;5.63;;
18445;SDS011;9352;50.888;4.466;2023-04-26T03:24:42;14.57;;;5.60;;
18445;SDS011;9352;50.888;4.466;2023-04-26T03:27:10;14.73;;;6.47;;
18445;SDS011;9352;50.888;4.466;2023-04-26T03:29:37;18.80;;;5.90;;
18445;SDS011;9352;50.888;4.466;2023-04-26T03:32:04;17.90;;;5.97;;
18445;SDS011;9352;50.888;4.466;2023-04-26T03:34:32;16.77;;;6.03;;
18445;SDS011;9352;50.888;4.466;2023-04-26T03:36:58;17.47;;;6.30;;
18445;SDS011;9352;50.888;4.466;2023-04-26T03:39:25;21.50;;;5.90;;
18445;SDS011;9352;50.888;4.466;2023-04-26T03:41:53;13.67;;;6.50;;
18445;SDS011;9352;50.888;4.466;2023-04-26T03:44:20;17.83;;;6.17;;
18445;SDS011;9352;50.888;4.466;2023-04-26T03:46:47;14.43;;;6.33;;
18445;SDS011;9352;50.888;4.466;2023-04-26T03:49:14;12.20;;;5.97;;
18445;SDS011;9352;50.888;4.466;2023-04-26T03:51:41;15.07;;;5.80;;
18445;SDS011;9352;50.888;4.466;2023-04-26T03:54:08;13.20;;;5.40;;
18445;SDS011;9352;50.888;4.466;2023-04-26T03:56:35;12.13;;;6.07;;
18445;SDS011;9352;50.888;4.466;2023-04-26T03:59:04;14.73;;;5.97;;
18445;SDS011;9352;50.888;4.466;2023-04-26T04:01:31;20.77;;;6.27;;
18445;SDS011;9352;50.888;4.466;2023-04-26T04:03:58;20.53;;;6.40;;
18445;SDS011;9352;50.888;4.466;2023-04-26T04:06:25;19.87;;;5.83;;
18445;SDS011;9352;50.888;4.466;2023-04-26T04:08:52;16.63;;;6.10;;
18445;SDS011;9352;50.888;4.466;2023-04-26T04:11:20;20.67;;;6.60;;
18445;SDS011;9352;50.888;4.466;2023-04-26T04:13:47;15.97;;;6.40;;
18445;SDS011;9352;50.888;4.466;2023-04-26T04:16:15;19.27;;;6.93;;
18445;SDS011;9352;50.888;4.466;2023-04-26T04:18:42;21.73;;;6.23;;
18445;SDS011;9352;50.888;4.466;2023-04-26T04:21:09;17.30;;;6.50;;
18445;SDS011;9352;50.888;4.466;2023-04-26T04:23:36;19.17;;;6.83;;
18445;SDS011;9352;50.888;4.466;2023-04-26T04:26:02;20.33;;;6.23;;
18445;SDS011;9352;50.888;4.466;2023-04-26T04:28:29;15.50;;;5.53;;
18445;SDS011;9352;50.888;4.466;2023-04-26T04:30:58;18.67;;;6.23;;
18445;SDS011;9352;50.888;4.466;2023-04-26T04:33:27;12.80;;;5.97;;
18445;SDS011;9352;50.888;4.466;2023-04-26T04:35:54;19.07;;;6.30;;
18445;SDS011;9352;50.888;4.466;2023-04-26T04:38:21;15.50;;;6.00;;
18445;SDS011;9352;50.888;4.466;2023-04-26T04:40:48;19.30;;;5.87;;
18445;SDS011;9352;50.888;4.466;2023-04-26T04:43:15;25.80;;;6.87;;
18445;SDS011;9352;50.888;4.466;2023-04-26T04:45:42;17.60;;;6.60;;
18445;SDS011;9352;50.888;4.466;2023-04-26T04:48:09;17.97;;;6.70;;
18445;SDS011;9352;50.888;4.466;2023-04-26T04:50:38;13.83;;;6.13;;
18445;SDS011;9352;50.888;4.466;2023-04-26T04:53:06;21.03;;;7.20;;
18445;SDS011;9352;50.888;4.466;2023-04-26T04:55:34;16.50;;;6.67;;
18445;SDS011;9352;50.888;4.466;2023-04-26T04:58:02;22.53;;;6.40;;
18445;SDS011;9352;50.888;4.466;2023-04-26T05:00:29;22.75;;;6.43;;
18445;SDS011;9352;50.888;4.466;2023-04-26T05:02:56;18.92;;;7.13;;
18445;SDS011;9352;50.888;4.466;2023-04-26T05:05:23;16.67;;;7.03;;
18445;SDS011;9352;50.888;4.466;2023-04-26T05:07:51;18.57;;;6.90;;
18445;SDS011;9352;50.888;4.466;2023-04-26T05:10:18;24.20;;;6.40;;
18445;SDS011;9352;50.888;4.466;2023-04-26T05:12:45;20.23;;;7.00;;
18445;SDS011;9352;50.888;4.466;2023-04-26T05:15:12;19.70;;;8.37;;
18445;SDS011;9352;50.888;4.466;2023-04-26T05:17:40;21.60;;;7.07;;
18445;SDS011;9352;50.888;4.466;2023-04-26T05:20:07;15.73;;;6.27;;
18445;SDS011;9352;50.888;4.466;2023-04-26T05:22:35;20.97;;;7.13;;
18445;SDS011;9352;50.888;4.466;2023-04-26T05:25:05;18.92;;;6.90;;
18445;SDS011;9352;50.888;4.466;2023-04-26T05:27:34;22.47;;;7.13;;
18445;SDS011;9352;50.888;4.466;2023-04-26T05:30:01;20.13;;;7.37;;
18445;SDS011;9352;50.888;4.466;2023-04-26T05:32:29;20.80;;;7.73;;
18445;SDS011;9352;50.888;4.466;2023-04-26T05:34:56;18.15;;;6.75;;
18445;SDS011;9352;50.888;4.466;2023-04-26T05:37:23;19.23;;;7.47;;
18445;SDS011;9352;50.888;4.466;2023-04-26T05:39:50;19.87;;;8.20;;
18445;SDS011;9352;50.888;4.466;2023-04-26T05:42:18;15.43;;;7.83;;
18445;SDS011;9352;50.888;4.466;2023-04-26T05:44:45;23.88;;;7.65;;
18445;SDS011;9352;50.888;4.466;2023-04-26T05:47:12;25.03;;;7.30;;
18445;SDS011;9352;50.888;4.466;2023-04-26T05:49:39;20.77;;;6.78;;
18445;SDS011;9352;50.888;4.466;2023-04-26T05:52:06;28.13;;;7.88;;
18445;SDS011;9352;50.888;4.466;2023-04-26T05:54:32;28.95;;;7.85;;
18445;SDS011;9352;50.888;4.466;2023-04-26T05:57:00;28.70;;;7.13;;
18445;SDS011;9352;50.888;4.466;2023-04-26T05:59:28;22.52;;;7.68;;
18445;SDS011;9352;50.888;4.466;2023-04-26T06:01:57;28.90;;;8.65;;
18445;SDS011;9352;50.888;4.466;2023-04-26T06:04:23;29.30;;;9.45;;
18445;SDS011;9352;50.888;4.466;2023-04-26T06:06:50;31.30;;;8.93;;
18445;SDS011;9352;50.888;4.466;2023-04-26T06:09:17;36.50;;;9.20;;
18445;SDS011;9352;50.888;4.466;2023-04-26T06:11:44;29.60;;;9.70;;
18445;SDS011;9352;50.888;4.466;2023-04-26T06:14:11;28.10;;;8.60;;
18445;SDS011;9352;50.888;4.466;2023-04-26T06:16:40;32.60;;;8.82;;
18445;SDS011;9352;50.888;4.466;2023-04-26T06:19:06;27.65;;;8.75;;
18445;SDS011;9352;50.888;4.466;2023-04-26T06:21:33;29.10;;;9.25;;
18445;SDS011;9352;50.888;4.466;2023-04-26T06:24:01;25.52;;;7.65;;
18445;SDS011;9352;50.888;4.466;2023-04-26T06:26:27;22.55;;;7.75;;
18445;SDS011;9352;50.888;4.466;2023-04-26T06:28:55;29.83;;;6.75;;
18445;SDS011;9352;50.888;4.466;2023-04-26T06:31:22;18.70;;;7.30;;
18445;SDS011;9352;50.888;4.466;2023-04-26T06:33:50;18.35;;;6.85;;
18445;SDS011;9352;50.888;4.466;2023-04-26T06:36:17;21.40;;;6.75;;
18445;SDS011;9352;50.888;4.466;2023-04-26T06:38:44;16.48;;;6.80;;
18445;SDS011;9352;50.888;4.466;2023-04-26T06:41:11;15.75;;;6.55;;
18445;SDS011;9352;50.888;4.466;2023-04-26T06:43:38;18.92;;;7.20;;
18445;SDS011;9352;50.888;4.466;2023-04-26T06:46:05;31.15;;;6.75;;
18445;SDS011;9352;50.888;4.466;2023-04-26T06:48:32;16.65;;;5.47;;
18445;SDS011;9352;50.888;4.466;2023-04-26T06:51:04;15.57;;;5.53;;
18445;SDS011;9352;50.888;4.466;2023-04-26T06:53:32;12.40;;;5.65;;
18445;SDS011;9352;50.888;4.466;2023-04-26T06:55:59;18.40;;;5.50;;
18445;SDS011;9352;50.888;4.466;2023-04-26T06:58:26;12.88;;;5.85;;
18445;SDS011;9352;50.888;4.466;2023-04-26T07:00:53;15.57;;;6.30;;
18445;SDS011;9352;50.888;4.466;2023-04-26T07:03:20;15.38;;;5.90;;
18445;SDS011;9352;50.888;4.466;2023-04-26T07:05:47;21.08;;;5.65;;
18445;SDS011;9352;50.888;4.466;2023-04-26T07:08:15;17.67;;;5.20;;
18445;SDS011;9352;50.888;4.466;2023-04-26T07:10:42;15.55;;;5.50;;
18445;SDS011;9352;50.888;4.466;2023-04-26T07:13:09;16.77;;;5.00;;
18445;SDS011;9352;50.888;4.466;2023-04-26T07:15:36;8.00;;;4.05;;
18445;SDS011;9352;50.888;4.466;2023-04-26T07:18:02;14.43;;;4.13;;
18445;SDS011;9352;50.888;4.466;2023-04-26T07:20:29;10.75;;;3.80;;
18445;SDS011;9352;50.888;4.466;2023-04-26T07:22:56;13.20;;;3.85;;
18445;SDS011;9352;50.888;4.466;2023-04-26T07:25:24;14.40;;;4.30;;
18445;SDS011;9352;50.888;4.466;2023-04-26T07:27:51;10.43;;;3.90;;
18445;SDS011;9352;50.888;4.466;2023-04-26T07:30:18;13.05;;;3.90;;
18445;SDS011;9352;50.888;4.466;2023-04-26T07:32:45;15.73;;;4.03;;
18445;SDS011;9352;50.888;4.466;2023-04-26T07:35:12;9.60;;;3.67;;
18445;SDS011;9352;50.888;4.466;2023-04-26T07:37:40;11.60;;;3.75;;
18445;SDS011;9352;50.888;4.466;2023-04-26T07:40:08;12.20;;;3.25;;
18445;SDS011;9352;50.888;4.466;2023-04-26T07:42:38;16.58;;;3.45;;
18445;SDS011;9352;50.888;4.466;2023-04-26T07:45:06;10.95;;;3.40;;
18445;SDS011;9352;50.888;4.466;2023-04-26T07:47:33;11.52;;;3.63;;
18445;SDS011;9352;50.888;4.466;2023-04-26T07:50:00;14.85;;;3.53;;
18445;SDS011;9352;50.888;4.466;2023-04-26T07:52:27;18.98;;;7.50;;
18445;SDS011;9352;50.888;4.466;2023-04-26T07:54:54;11.35;;;2.97;;
18445;SDS011;9352;50.888;4.466;2023-04-26T07:57:21;13.35;;;3.42;;
18445;SDS011;9352;50.888;4.466;2023-04-26T07:59:49;16.75;;;3.67;;
18445;SDS011;9352;50.888;4.466;2023-04-26T08:02:16;12.73;;;2.88;;
18445;SDS011;9352;50.888;4.466;2023-04-26T08:04:46;8.13;;;3.10;;
18445;SDS011;9352;50.888;4.466;2023-04-26T08:07:16;12.00;;;3.42;;
18445;SDS011;9352;50.888;4.466;2023-04-26T08:09:43;13.57;;;3.20;;
18445;SDS011;9352;50.888;4.466;2023-04-26T08:12:10;17.80;;;4.15;;
18445;SDS011;9352;50.888;4.466;2023-04-26T08:14:37;11.68;;;3.28;;
18445;SDS011;9352;50.888;4.466;2023-04-26T08:17:05;8.25;;;3.50;;
18445;SDS011;9352;50.888;4.466;2023-04-26T08:19:33;13.45;;;3.30;;
18445;SDS011;9352;50.888;4.466;2023-04-26T08:22:00;5.43;;;2.92;;
18445;SDS011;9352;50.888;4.466;2023-04-26T08:24:27;11.95;;;2.92;;
18445;SDS011;9352;50.888;4.466;2023-04-26T08:26:54;10.93;;;2.90;;
18445;SDS011;9352;50.888;4.466;2023-04-26T08:29:22;10.98;;;3.17;;
18445;SDS011;9352;50.888;4.466;2023-04-26T08:31:49;8.60;;;3.20;;
18445;SDS011;9352;50.888;4.466;2023-04-26T08:34:18;11.93;;;3.85;;
18445;SDS011;9352;50.888;4.466;2023-04-26T08:36:45;13.20;;;3.05;;
18445;SDS011;9352;50.888;4.466;2023-04-26T08:39:11;6.97;;;2.40;;
18445;SDS011;9352;50.888;4.466;2023-04-26T08:41:41;5.70;;;2.30;;
18445;SDS011;9352;50.888;4.466;2023-04-26T08:44:09;6.38;;;2.58;;
18445;SDS011;9352;50.888;4.466;2023-04-26T08:46:39;10.35;;;3.30;;
18445;SDS011;9352;50.888;4.466;2023-04-26T08:49:12;10.02;;;3.45;;
18445;SDS011;9352;50.888;4.466;2023-04-26T08:51:47;11.90;;;3.85;;
18445;SDS011;9352;50.888;4.466;2023-04-26T08:54:15;5.32;;;3.50;;
18445;SDS011;9352;50.888;4.466;2023-04-26T08:56:44;9.73;;;4.05;;
18445;SDS011;9352;50.888;4.466;2023-04-26T08:59:12;6.57;;;3.38;;
18445;SDS011;9352;50.888;4.466;2023-04-26T09:01:40;10.55;;;3.40;;
18445;SDS011;9352;50.888;4.466;2023-04-26T09:04:09;8.55;;;3.65;;
18445;SDS011;9352;50.888;4.466;2023-04-26T09:06:38;12.60;;;3.70;;
18445;SDS011;9352;50.888;4.466;2023-04-26T09:09:05;15.20;;;3.75;;
18445;SDS011;9352;50.888;4.466;2023-04-26T09:11:51;8.25;;;2.80;;
18445;SDS011;9352;50.888;4.466;2023-04-26T09:14:20;7.60;;;3.08;;
18445;SDS011;9352;50.888;4.466;2023-04-26T09:16:47;13.90;;;3.63;;
18445;SDS011;9352;50.888;4.466;2023-04-26T09:19:14;7.05;;;3.60;;
18445;SDS011;9352;50.888;4.466;2023-04-26T09:21:43;8.43;;;3.92;;
18445;SDS011;9352;50.888;4.466;2023-04-26T09:24:10;7.00;;;2.85;;
18445;SDS011;9352;50.888;4.466;2023-04-26T09:26:39;12.80;;;3.85;;
18445;SDS011;9352;50.888;4.466;2023-04-26T09:29:10;7.70;;;3.67;;
18445;SDS011;9352;50.888;4.466;2023-04-26T09:31:38;11.05;;;3.45;;
18445;SDS011;9352;50.888;4.466;2023-04-26T09:34:07;10.68;;;3.45;;
18445;SDS011;9352;50.888;4.466;2023-04-26T09:36:46;11.15;;;3.17;;
18445;SDS011;9352;50.888;4.466;2023-04-26T09:39:14;13.50;;;3.40;;
18445;SDS011;9352;50.888;4.466;2023-04-26T09:41:54;9.88;;;3.05;;
18445;SDS011;9352;50.888;4.466;2023-04-26T09:44:22;10.27;;;3.53;;
18445;SDS011;9352;50.888;4.466;2023-04-26T09:46:59;7.68;;;3.03;;
18445;SDS011;9352;50.888;4.466;2023-04-26T09:49:31;5.50;;;3.38;;
18445;SDS011;9352;50.888;4.466;2023-04-26T09:52:01;5.72;;;3.38;;
18445;SDS011;9352;50.888;4.466;2023-04-26T09:54:36;6.43;;;3.13;;
18445;SDS011;9352;50.888;4.466;2023-04-26T09:57:04;16.80;;;5.97;;
18445;SDS011;9352;50.888;4.466;2023-04-26T09:59:38;6.60;;;2.70;;
18445;SDS011;9352;50.888;4.466;2023-04-26T10:02:09;7.75;;;2.85;;
18445;SDS011;9352;50.888;4.466;2023-04-26T10:04:40;10.52;;;3.30;;
18445;SDS011;9352;50.888;4.466;2023-04-26T10:07:11;8.70;;;2.95;;
18445;SDS011;9352;50.888;4.466;2023-04-26T10:09:38;8.13;;;3.10;;
18445;SDS011;9352;50.888;4.466;2023-04-26T10:12:07;7.97;;;3.55;;
18445;SDS011;9352;50.888;4.466;2023-04-26T10:14:35;9.27;;;3.42;;
18445;SDS011;9352;50.888;4.466;2023-04-26T10:17:02;12.18;;;3.47;;
18445;SDS011;9352;50.888;4.466;2023-04-26T10:19:30;8.10;;;3.10;;
18445;SDS011;9352;50.888;4.466;2023-04-26T10:22:00;11.48;;;3.20;;
18445;SDS011;9352;50.888;4.466;2023-04-26T10:24:31;4.88;;;3.00;;
18445;SDS011;9352;50.888;4.466;2023-04-26T10:27:00;11.95;;;3.33;;
18445;SDS011;9352;50.888;4.466;2023-04-26T10:32:31;6.72;;;3.35;;
18445;SDS011;9352;50.888;4.466;2023-04-26T10:35:10;12.68;;;3.38;;
18445;SDS011;9352;50.888;4.466;2023-04-26T10:40:37;8.73;;;3.25;;
18445;SDS011;9352;50.888;4.466;2023-04-26T10:45:53;6.75;;;3.10;;
18445;SDS011;9352;50.888;4.466;2023-04-26T10:48:21;7.13;;;3.20;;
18445;SDS011;9352;50.888;4.466;2023-04-26T10:51:08;9.93;;;3.00;;
18445;SDS011;9352;50.888;4.466;2023-04-26T10:59:20;6.28;;;3.03;;
18445;SDS011;9352;50.888;4.466;2023-04-26T11:01:48;27.75;;;4.07;;
18445;SDS011;9352;50.888;4.466;2023-04-26T11:04:18;7.50;;;3.30;;
18445;SDS011;9352;50.888;4.466;2023-04-26T11:06:48;10.40;;;3.30;;
18445;SDS011;9352;50.888;4.466;2023-04-26T11:09:34;8.55;;;3.03;;
18445;SDS011;9352;50.888;4.466;2023-04-26T11:12:05;8.27;;;3.28;;
18445;SDS011;9352;50.888;4.466;2023-04-26T11:14:36;8.75;;;3.25;;
18445;SDS011;9352;50.888;4.466;2023-04-26T11:17:03;8.13;;;3.42;;
18445;SDS011;9352;50.888;4.466;2023-04-26T11:19:31;7.72;;;2.95;;
18445;SDS011;9352;50.888;4.466;2023-04-26T11:21:58;9.13;;;3.00;;
18445;SDS011;9352;50.888;4.466;2023-04-26T11:24:26;6.88;;;2.85;;
18445;SDS011;9352;50.888;4.466;2023-04-26T11:26:53;11.05;;;3.05;;
18445;SDS011;9352;50.888;4.466;2023-04-26T11:29:23;10.65;;;3.22;;
18445;SDS011;9352;50.888;4.466;2023-04-26T11:31:52;5.32;;;3.30;;
18445;SDS011;9352;50.888;4.466;2023-04-26T11:34:20;13.25;;;4.03;;
18445;SDS011;9352;50.888;4.466;2023-04-26T11:36:49;7.32;;;3.13;;
18445;SDS011;9352;50.888;4.466;2023-04-26T11:39:20;6.53;;;3.28;;
18445;SDS011;9352;50.888;4.466;2023-04-26T11:41:47;10.77;;;3.17;;
18445;SDS011;9352;50.888;4.466;2023-04-26T11:44:17;5.75;;;3.35;;
18445;SDS011;9352;50.888;4.466;2023-04-26T11:46:46;6.80;;;3.20;;
18445;SDS011;9352;50.888;4.466;2023-04-26T11:49:14;12.30;;;3.30;;
18445;SDS011;9352;50.888;4.466;2023-04-26T11:51:42;9.32;;;3.05;;
18445;SDS011;9352;50.888;4.466;2023-04-26T11:54:25;5.82;;;3.40;;
18445;SDS011;9352;50.888;4.466;2023-04-26T11:56:53;12.98;;;3.58;;
18445;SDS011;9352;50.888;4.466;2023-04-26T11:59:23;8.32;;;3.13;;
18445;SDS011;9352;50.888;4.466;2023-04-26T12:01:52;5.47;;;2.97;;
18445;SDS011;9352;50.888;4.466;2023-04-26T12:04:25;4.60;;;3.40;;
18445;SDS011;9352;50.888;4.466;2023-04-26T12:06:53;7.03;;;3.35;;
18445;SDS011;9352;50.888;4.466;2023-04-26T12:09:21;11.38;;;3.78;;
18445;SDS011;9352;50.888;4.466;2023-04-26T12:11:52;9.48;;;3.50;;
18445;SDS011;9352;50.888;4.466;2023-04-26T12:14:23;12.07;;;3.50;;
18445;SDS011;9352;50.888;4.466;2023-04-26T12:16:58;6.80;;;3.40;;
18445;SDS011;9352;50.888;4.466;2023-04-26T12:19:25;5.93;;;3.42;;
18445;SDS011;9352;50.888;4.466;2023-04-26T12:21:52;8.20;;;3.60;;
18445;SDS011;9352;50.888;4.466;2023-04-26T12:24:20;7.38;;;3.45;;
18445;SDS011;9352;50.888;4.466;2023-04-26T12:26:48;10.30;;;3.40;;
18445;SDS011;9352;50.888;4.466;2023-04-26T12:29:15;7.78;;;3.53;;
18445;SDS011;9352;50.888;4.466;2023-04-26T12:31:42;6.97;;;3.28;;
18445;SDS011;9352;50.888;4.466;2023-04-26T12:34:10;15.23;;;3.58;;
18445;SDS011;9352;50.888;4.466;2023-04-26T12:36:37;7.03;;;3.15;;
18445;SDS011;9352;50.888;4.466;2023-04-26T12:39:06;13.35;;;4.00;;
18445;SDS011;9352;50.888;4.466;2023-04-26T12:41:32;6.65;;;3.20;;
18445;SDS011;9352;50.888;4.466;2023-04-26T12:43:59;13.23;;;3.80;;
18445;SDS011;9352;50.888;4.466;2023-04-26T12:46:26;16.40;;;4.28;;
18445;SDS011;9352;50.888;4.466;2023-04-26T12:48:53;12.35;;;3.42;;
18445;SDS011;9352;50.888;4.466;2023-04-26T12:51:23;9.38;;;3.20;;
18445;SDS011;9352;50.888;4.466;2023-04-26T12:53:51;7.40;;;3.00;;
18445;SDS011;9352;50.888;4.466;2023-04-26T12:56:18;10.65;;;3.17;;
18445;SDS011;9352;50.888;4.466;2023-04-26T12:58:45;9.75;;;3.85;;
18445;SDS011;9352;50.888;4.466;2023-04-26T13:01:13;5.25;;;3.10;;
18445;SDS011;9352;50.888;4.466;2023-04-26T13:03:41;9.05;;;3.60;;
18445;SDS011;9352;50.888;4.466;2023-04-26T13:06:08;7.78;;;3.05;;
18445;SDS011;9352;50.888;4.466;2023-04-26T13:08:36;7.05;;;3.17;;
18445;SDS011;9352;50.888;4.466;2023-04-26T13:11:03;7.43;;;3.60;;
18445;SDS011;9352;50.888;4.466;2023-04-26T13:13:30;7.38;;;3.35;;
18445;SDS011;9352;50.888;4.466;2023-04-26T13:15:57;7.53;;;4.30;;
18445;SDS011;9352;50.888;4.466;2023-04-26T13:18:24;13.20;;;3.83;;
18445;SDS011;9352;50.888;4.466;2023-04-26T13:20:51;6.05;;;3.55;;
18445;SDS011;9352;50.888;4.466;2023-04-26T13:23:18;7.65;;;3.38;;
18445;SDS011;9352;50.888;4.466;2023-04-26T13:25:46;5.65;;;3.47;;
18445;SDS011;9352;50.888;4.466;2023-04-26T13:28:13;5.13;;;3.20;;
18445;SDS011;9352;50.888;4.466;2023-04-26T13:30:40;6.13;;;3.60;;
18445;SDS011;9352;50.888;4.466;2023-04-26T13:33:07;4.47;;;2.95;;
18445;SDS011;9352;50.888;4.466;2023-04-26T13:35:35;4.78;;;3.28;;
18445;SDS011;9352;50.888;4.466;2023-04-26T13:38:01;7.85;;;3.53;;
18445;SDS011;9352;50.888;4.466;2023-04-26T13:40:28;11.65;;;3.47;;
18445;SDS011;9352;50.888;4.466;2023-04-26T13:42:57;4.47;;;3.40;;
18445;SDS011;9352;50.888;4.466;2023-04-26T13:45:23;7.28;;;3.08;;
18445;SDS011;9352;50.888;4.466;2023-04-26T13:47:51;5.13;;;3.30;;
18445;SDS011;9352;50.888;4.466;2023-04-26T13:50:18;5.13;;;3.30;;
18445;SDS011;9352;50.888;4.466;2023-04-26T13:52:45;8.90;;;3.45;;
18445;SDS011;9352;50.888;4.466;2023-04-26T13:55:14;7.13;;;3.55;;
18445;SDS011;9352;50.888;4.466;2023-04-26T13:57:41;8.80;;;3.10;;
18445;SDS011;9352;50.888;4.466;2023-04-26T14:00:10;5.63;;;3.13;;
18445;SDS011;9352;50.888;4.466;2023-04-26T14:02:38;4.95;;;3.30;;
18445;SDS011;9352;50.888;4.466;2023-04-26T14:05:05;7.47;;;3.50;;
18445;SDS011;9352;50.888;4.466;2023-04-26T14:07:33;8.45;;;3.58;;
18445;SDS011;9352;50.888;4.466;2023-04-26T14:10:00;5.10;;;3.53;;
18445;SDS011;9352;50.888;4.466;2023-04-26T14:12:27;5.28;;;3.35;;
18445;SDS011;9352;50.888;4.466;2023-04-26T14:14:54;4.90;;;3.38;;
18445;SDS011;9352;50.888;4.466;2023-04-26T14:17:23;7.85;;;3.47;;
18445;SDS011;9352;50.888;4.466;2023-04-26T14:19:52;7.38;;;3.70;;
18445;SDS011;9352;50.888;4.466;2023-04-26T14:22:19;9.68;;;4.05;;
18445;SDS011;9352;50.888;4.466;2023-04-26T14:24:45;12.75;;;3.72;;
18445;SDS011;9352;50.888;4.466;2023-04-26T14:27:13;7.20;;;3.65;;
18445;SDS011;9352;50.888;4.466;2023-04-26T14:29:39;5.45;;;3.72;;
18445;SDS011;9352;50.888;4.466;2023-04-26T14:32:06;6.00;;;3.58;;
18445;SDS011;9352;50.888;4.466;2023-04-26T14:34:35;13.63;;;4.45;;
18445;SDS011;9352;50.888;4.466;2023-04-26T14:37:03;5.90;;;3.60;;
18445;SDS011;9352;50.888;4.466;2023-04-26T14:39:30;7.28;;;4.03;;
18445;SDS011;9352;50.888;4.466;2023-04-26T14:41:57;7.57;;;3.72;;
18445;SDS011;9352;50.888;4.466;2023-04-26T14:44:24;6.25;;;3.60;;
18445;SDS011;9352;50.888;4.466;2023-04-26T14:46:51;6.90;;;3.78;;
18445;SDS011;9352;50.888;4.466;2023-04-26T14:49:18;6.93;;;3.85;;
18445;SDS011;9352;50.888;4.466;2023-04-26T14:51:47;7.00;;;3.95;;
18445;SDS011;9352;50.888;4.466;2023-04-26T14:54:13;7.28;;;3.53;;
18445;SDS011;9352;50.888;4.466;2023-04-26T14:56:41;6.45;;;3.45;;
18445;SDS011;9352;50.888;4.466;2023-04-26T14:59:08;5.80;;;3.53;;
18445;SDS011;9352;50.888;4.466;2023-04-26T15:01:35;14.80;;;4.00;;
18445;SDS011;9352;50.888;4.466;2023-04-26T15:04:02;8.18;;;4.00;;
18445;SDS011;9352;50.888;4.466;2023-04-26T15:06:29;7.47;;;3.88;;
18445;SDS011;9352;50.888;4.466;2023-04-26T15:08:59;9.23;;;4.05;;
18445;SDS011;9352;50.888;4.466;2023-04-26T15:11:26;7.05;;;3.70;;